sensor_id;sensor_type;location;lat;lon;timestamp;pressure;altitude;pressure_sealevel;temperature;humidity
44926;BME280;30662;51.210;7.656;2023-04-24T00:00:57;150932.06;;;8.52;100.00
44926;BME280;30662;51.210;7.656;2023-04-24T00:03:23;150969.97;;;8.68;100.00
44926;BME280;30662;51.210;7.656;2023-04-24T00:05:50;150962.41;;;8.65;100.00
44926;BME280;30662;51.210;7.656;2023-04-24T00:08:17;150933.31;;;8.53;100.00
44926;BME280;30662;51.210;7.656;2023-04-24T00:10:42;150940.91;;;8.56;100.00
44926;BME280;30662;51.210;7.656;2023-04-24T00:13:08;150937.09;;;8.54;100.00
44926;BME280;30662;51.210;7.656;2023-04-24T00:15:35;150877.66;;;8.30;100.00
44926;BME280;30662;51.210;7.656;2023-04-24T00:18:00;150901.75;;;8.40;100.00
44926;BME280;30662;51.210;7.656;2023-04-24T00:20:27;150906.78;;;8.42;100.00
44926;BME280;30662;51.210;7.656;2023-04-24T00:22:58;150872.63;;;8.28;100.00
44926;BME280;30662;51.210;7.656;2023-04-24T00:25:23;150916.88;;;8.46;100.00
44926;BME280;30662;51.210;7.656;2023-04-24T00:27:49;150884.00;;;8.33;100.00
44926;BME280;30662;51.210;7.656;2023-04-24T00:30:16;150889.09;;;8.35;100.00
44926;BME280;30662;51.210;7.656;2023-04-24T00:32:41;150914.34;;;8.45;100.00
44926;BME280;30662;51.210;7.656;2023-04-24T00:35:08;150866.31;;;8.26;100.00
44926;BME280;30662;51.210;7.656;2023-04-24T00:37:34;150884.00;;;8.33;100.00
44926;BME280;30662;51.210;7.656;2023-04-24T00:40:00;150896.66;;;8.38;100.00
44926;BME280;30662;51.210;7.656;2023-04-24T00:42:26;150899.19;;;8.39;100.00
44926;BME280;30662;51.210;7.656;2023-04-24T00:44:52;150923.22;;;8.49;100.00
44926;BME280;30662;51.210;7.656;2023-04-24T00:47:19;150954.78;;;8.62;100.00
44926;BME280;30662;51.210;7.656;2023-04-24T00:49:45;150924.50;;;8.49;100.00
44926;BME280;30662;51.210;7.656;2023-04-24T00:52:14;150885.25;;;8.34;100.00
44926;BME280;30662;51.210;7.656;2023-04-24T00:54:44;150876.41;;;8.30;100.00
44926;BME280;30662;51.210;7.656;2023-04-24T00:57:11;150889.09;;;8.35;100.00
44926;BME280;30662;51.210;7.656;2023-04-24T00:59:38;150920.69;;;8.48;100.00
44926;BME280;30662;51.210;7.656;2023-04-24T01:02:07;150939.66;;;8.55;100.00
44926;BME280;30662;51.210;7.656;2023-04-24T01:04:34;150933.31;;;8.53;100.00
44926;BME280;30662;51.210;7.656;2023-04-24T01:07:01;150906.78;;;8.42;100.00
44926;BME280;30662;51.210;7.656;2023-04-24T01:09:27;150909.31;;;8.43;100.00
44926;BME280;30662;51.210;7.656;2023-04-24T01:11:53;150918.13;;;8.47;100.00
44926;BME280;30662;51.210;7.656;2023-04-24T01:14:19;150923.22;;;8.49;100.00
44926;BME280;30662;51.210;7.656;2023-04-24T01:16:45;150924.50;;;8.49;100.00
44926;BME280;30662;51.210;7.656;2023-04-24T01:19:12;150906.78;;;8.42;100.00
44926;BME280;30662;51.210;7.656;2023-04-24T01:21:39;150924.50;;;8.49;100.00
44926;BME280;30662;51.210;7.656;2023-04-24T01:24:06;150957.38;;;8.63;100.00
44926;BME280;30662;51.210;7.656;2023-04-24T01:26:32;150934.56;;;8.53;100.00
44926;BME280;30662;51.210;7.656;2023-04-24T01:28:58;150951.00;;;8.60;100.00
44926;BME280;30662;51.210;7.656;2023-04-24T01:31:24;150930.78;;;8.52;100.00
44926;BME280;30662;51.210;7.656;2023-04-24T01:33:51;150925.75;;;8.50;100.00
44926;BME280;30662;51.210;7.656;2023-04-24T01:36:18;150961.16;;;8.64;100.00
44926;BME280;30662;51.210;7.656;2023-04-24T01:38:44;150952.28;;;8.61;100.00
44926;BME280;30662;51.210;7.656;2023-04-24T01:41:10;150937.09;;;8.54;100.00
44926;BME280;30662;51.210;7.656;2023-04-24T01:43:36;150947.22;;;8.59;100.00
44926;BME280;30662;51.210;7.656;2023-04-24T01:46:02;150891.63;;;8.36;100.00
44926;BME280;30662;51.210;7.656;2023-04-24T01:48:28;150915.63;;;8.46;100.00
44926;BME280;30662;51.210;7.656;2023-04-24T01:50:56;150913.09;;;8.45;100.00
44926;BME280;30662;51.210;7.656;2023-04-24T01:53:22;150873.88;;;8.29;100.00
44926;BME280;30662;51.210;7.656;2023-04-24T01:55:48;150896.66;;;8.38;100.00
44926;BME280;30662;51.210;7.656;2023-04-24T01:58:14;150878.91;;;8.31;100.00
44926;BME280;30662;51.210;7.656;2023-04-24T02:00:40;150905.53;;;8.42;100.00
44926;BME280;30662;51.210;7.656;2023-04-24T02:03:06;150900.44;;;8.40;100.00
44926;BME280;30662;51.210;7.656;2023-04-24T02:05:33;150895.41;;;8.38;100.00
44926;BME280;30662;51.210;7.656;2023-04-24T02:07:59;150909.31;;;8.43;100.00
44926;BME280;30662;51.210;7.656;2023-04-24T02:10:25;150944.72;;;8.57;100.00
44926;BME280;30662;51.210;7.656;2023-04-24T02:12:51;150921.97;;;8.48;100.00
44926;BME280;30662;51.210;7.656;2023-04-24T02:15:17;150868.84;;;8.27;100.00
44926;BME280;30662;51.210;7.656;2023-04-24T02:17:43;150908.06;;;8.43;100.00
44926;BME280;30662;51.210;7.656;2023-04-24T02:20:09;150924.50;;;8.49;100.00
44926;BME280;30662;51.210;7.656;2023-04-24T02:22:35;150862.47;;;8.24;100.00
44926;BME280;30662;51.210;7.656;2023-04-24T02:25:02;150881.44;;;8.32;100.00
44926;BME280;30662;51.210;7.656;2023-04-24T02:27:28;150851.13;;;8.20;100.00
44926;BME280;30662;51.210;7.656;2023-04-24T02:29:54;150810.66;;;8.03;100.00
44926;BME280;30662;51.210;7.656;2023-04-24T02:32:20;150810.66;;;8.03;100.00
44926;BME280;30662;51.210;7.656;2023-04-24T02:34:46;150800.59;;;7.99;100.00
44926;BME280;30662;51.210;7.656;2023-04-24T02:37:12;150757.66;;;7.82;100.00
44926;BME280;30662;51.210;7.656;2023-04-24T02:39:38;150780.38;;;7.91;100.00
44926;BME280;30662;51.210;7.656;2023-04-24T02:42:04;150777.84;;;7.90;100.00
44926;BME280;30662;51.210;7.656;2023-04-24T02:44:30;150818.28;;;8.07;100.00
44926;BME280;30662;51.210;7.656;2023-04-24T02:46:55;150825.84;;;8.10;100.00
44926;BME280;30662;51.210;7.656;2023-04-24T02:49:21;150839.75;;;8.15;100.00
44926;BME280;30662;51.210;7.656;2023-04-24T02:51:47;150813.22;;;8.05;100.00
44926;BME280;30662;51.210;7.656;2023-04-24T02:54:13;150808.16;;;8.02;100.00
44926;BME280;30662;51.210;7.656;2023-04-24T02:56:39;150810.66;;;8.03;100.00
44926;BME280;30662;51.210;7.656;2023-04-24T02:59:05;150824.56;;;8.09;100.00
44926;BME280;30662;51.210;7.656;2023-04-24T03:01:31;150811.97;;;8.04;100.00
44926;BME280;30662;51.210;7.656;2023-04-24T03:03:57;150745.00;;;7.77;100.00
44926;BME280;30662;51.210;7.656;2023-04-24T03:06:23;150771.50;;;7.88;100.00
44926;BME280;30662;51.210;7.656;2023-04-24T03:08:49;150756.34;;;7.82;100.00
44926;BME280;30662;51.210;7.656;2023-04-24T03:11:15;150742.47;;;7.76;100.00
44926;BME280;30662;51.210;7.656;2023-04-24T03:13:41;150751.28;;;7.80;100.00
44926;BME280;30662;51.210;7.656;2023-04-24T03:16:07;150755.06;;;7.81;100.00
44926;BME280;30662;51.210;7.656;2023-04-24T03:18:33;150726.06;;;7.69;100.00
44926;BME280;30662;51.210;7.656;2023-04-24T03:20:58;150743.75;;;7.77;100.00
44926;BME280;30662;51.210;7.656;2023-04-24T03:23:24;150718.44;;;7.66;100.00
44926;BME280;30662;51.210;7.656;2023-04-24T03:25:50;150613.59;;;7.24;100.00
44926;BME280;30662;51.210;7.656;2023-04-24T03:28:16;150599.75;;;7.18;100.00
44926;BME280;30662;51.210;7.656;2023-04-24T03:30:42;150625.00;;;7.29;100.00
44926;BME280;30662;51.210;7.656;2023-04-24T03:33:08;150604.78;;;7.21;100.00
44926;BME280;30662;51.210;7.656;2023-04-24T03:35:35;150609.81;;;7.23;100.00
44926;BME280;30662;51.210;7.656;2023-04-24T03:38:01;150613.59;;;7.24;100.00
44926;BME280;30662;51.210;7.656;2023-04-24T03:40:30;150609.81;;;7.23;100.00
44926;BME280;30662;51.210;7.656;2023-04-24T03:42:56;150621.22;;;7.27;100.00
44926;BME280;30662;51.210;7.656;2023-04-24T03:45:22;150613.59;;;7.24;100.00
44926;BME280;30662;51.210;7.656;2023-04-24T03:47:47;150611.09;;;7.23;100.00
44926;BME280;30662;51.210;7.656;2023-04-24T03:50:14;150619.94;;;7.27;100.00
44926;BME280;30662;51.210;7.656;2023-04-24T03:52:40;150608.56;;;7.22;100.00
44926;BME280;30662;51.210;7.656;2023-04-24T03:55:06;150626.25;;;7.29;100.00
44926;BME280;30662;51.210;7.656;2023-04-24T03:57:32;150638.91;;;7.34;100.00
44926;BME280;30662;51.210;7.656;2023-04-24T03:59:58;150681.81;;;7.52;100.00
44926;BME280;30662;51.210;7.656;2023-04-24T04:02:24;150616.16;;;7.25;100.00
44926;BME280;30662;51.210;7.656;2023-04-24T04:04:50;150595.97;;;7.17;100.00
44926;BME280;30662;51.210;7.656;2023-04-24T04:07:16;150590.88;;;7.15;100.00
44926;BME280;30662;51.210;7.656;2023-04-24T04:09:41;150598.50;;;7.18;100.00
44926;BME280;30662;51.210;7.656;2023-04-24T04:12:08;150575.72;;;7.09;100.00
44926;BME280;30662;51.210;7.656;2023-04-24T04:14:33;150590.88;;;7.15;100.00
44926;BME280;30662;51.210;7.656;2023-04-24T04:16:59;150625.00;;;7.29;100.00
44926;BME280;30662;51.210;7.656;2023-04-24T04:19:26;150598.50;;;7.18;100.00
44926;BME280;30662;51.210;7.656;2023-04-24T04:21:52;150617.44;;;7.26;100.00
44926;BME280;30662;51.210;7.656;2023-04-24T04:24:19;150685.59;;;7.53;100.00
44926;BME280;30662;51.210;7.656;2023-04-24T04:26:46;150673.00;;;7.48;100.00
44926;BME280;30662;51.210;7.656;2023-04-24T04:29:13;150645.19;;;7.37;100.00
44926;BME280;30662;51.210;7.656;2023-04-24T04:31:39;150626.25;;;7.29;100.00
44926;BME280;30662;51.210;7.656;2023-04-24T04:34:05;150631.28;;;7.31;100.00
44926;BME280;30662;51.210;7.656;2023-04-24T04:36:31;150631.28;;;7.31;100.00
44926;BME280;30662;51.210;7.656;2023-04-24T04:38:57;150626.25;;;7.29;100.00
44926;BME280;30662;51.210;7.656;2023-04-24T04:41:24;150646.44;;;7.37;100.00
44926;BME280;30662;51.210;7.656;2023-04-24T04:43:50;150636.38;;;7.33;100.00
44926;BME280;30662;51.210;7.656;2023-04-24T04:46:18;150627.50;;;7.30;100.00
44926;BME280;30662;51.210;7.656;2023-04-24T04:48:44;150593.41;;;7.16;100.00
44926;BME280;30662;51.210;7.656;2023-04-24T04:51:10;150585.84;;;7.13;100.00
44926;BME280;30662;51.210;7.656;2023-04-24T04:53:35;150618.69;;;7.26;100.00
44926;BME280;30662;51.210;7.656;2023-04-24T04:56:01;150564.41;;;7.04;100.00
44926;BME280;30662;51.210;7.656;2023-04-24T04:58:27;150566.91;;;7.05;100.00
44926;BME280;30662;51.210;7.656;2023-04-24T05:00:53;150561.88;;;7.03;100.00
44926;BME280;30662;51.210;7.656;2023-04-24T05:03:19;150578.28;;;7.10;100.00
44926;BME280;30662;51.210;7.656;2023-04-24T05:05:47;150517.66;;;6.85;100.00
44926;BME280;30662;51.210;7.656;2023-04-24T05:08:15;150486.09;;;6.73;100.00
44926;BME280;30662;51.210;7.656;2023-04-24T05:10:53;150478.53;;;6.70;100.00
44926;BME280;30662;51.210;7.656;2023-04-24T05:13:19;150492.44;;;6.75;100.00
44926;BME280;30662;51.210;7.656;2023-04-24T05:16:01;150493.69;;;6.76;100.00
44926;BME280;30662;51.210;7.656;2023-04-24T05:18:27;150492.44;;;6.75;100.00
44926;BME280;30662;51.210;7.656;2023-04-24T05:20:53;150469.69;;;6.66;100.00
44926;BME280;30662;51.210;7.656;2023-04-24T05:23:19;150444.47;;;6.56;100.00
44926;BME280;30662;51.210;7.656;2023-04-24T05:25:45;150453.31;;;6.59;100.00
44926;BME280;30662;51.210;7.656;2023-04-24T05:28:11;150429.31;;;6.50;100.00
44926;BME280;30662;51.210;7.656;2023-04-24T05:30:37;150436.91;;;6.53;100.00
44926;BME280;30662;51.210;7.656;2023-04-24T05:33:03;150417.97;;;6.45;100.00
44926;BME280;30662;51.210;7.656;2023-04-24T05:35:29;150450.75;;;6.58;100.00
44926;BME280;30662;51.210;7.656;2023-04-24T05:37:55;150472.25;;;6.67;100.00
44926;BME280;30662;51.210;7.656;2023-04-24T05:40:21;150476.03;;;6.69;100.00
44926;BME280;30662;51.210;7.656;2023-04-24T05:42:47;150458.34;;;6.61;100.00
44926;BME280;30662;51.210;7.656;2023-04-24T05:45:13;150470.97;;;6.67;100.00
44926;BME280;30662;51.210;7.656;2023-04-24T05:47:45;150505.03;;;6.80;100.00
44926;BME280;30662;51.210;7.656;2023-04-24T05:50:11;150481.06;;;6.71;100.00
44926;BME280;30662;51.210;7.656;2023-04-24T05:52:37;150463.38;;;6.63;100.00
44926;BME280;30662;51.210;7.656;2023-04-24T05:55:03;150430.56;;;6.50;100.00
44926;BME280;30662;51.210;7.656;2023-04-24T05:57:29;150434.38;;;6.52;100.00
44926;BME280;30662;51.210;7.656;2023-04-24T05:59:55;150407.84;;;6.41;100.00
44926;BME280;30662;51.210;7.656;2023-04-24T06:02:21;150416.72;;;6.45;100.00
44926;BME280;30662;51.210;7.656;2023-04-24T06:04:47;150439.41;;;6.54;100.00
44926;BME280;30662;51.210;7.656;2023-04-24T06:07:14;150462.13;;;6.63;100.00
44926;BME280;30662;51.210;7.656;2023-04-24T06:09:42;150439.41;;;6.54;100.00
44926;BME280;30662;51.210;7.656;2023-04-24T06:12:09;150481.06;;;6.71;100.00
44926;BME280;30662;51.210;7.656;2023-04-24T06:14:34;150444.47;;;6.56;100.00
44926;BME280;30662;51.210;7.656;2023-04-24T06:17:01;150388.94;;;6.33;100.00
44926;BME280;30662;51.210;7.656;2023-04-24T06:19:26;150421.75;;;6.47;100.00
44926;BME280;30662;51.210;7.656;2023-04-24T06:21:52;150415.41;;;6.44;100.00
44926;BME280;30662;51.210;7.656;2023-04-24T06:24:18;150429.31;;;6.50;100.00
44926;BME280;30662;51.210;7.656;2023-04-24T06:26:44;150430.56;;;6.50;100.00
44926;BME280;30662;51.210;7.656;2023-04-24T06:29:10;150445.72;;;6.56;100.00
44926;BME280;30662;51.210;7.656;2023-04-24T06:31:36;150487.34;;;6.73;100.00
44926;BME280;30662;51.210;7.656;2023-04-24T06:34:03;150429.31;;;6.50;100.00
44926;BME280;30662;51.210;7.656;2023-04-24T06:36:29;150465.91;;;6.64;100.00
44926;BME280;30662;51.210;7.656;2023-04-24T06:38:56;150462.13;;;6.63;100.00
44926;BME280;30662;51.210;7.656;2023-04-24T06:41:23;150444.47;;;6.56;100.00
44926;BME280;30662;51.210;7.656;2023-04-24T06:43:49;150484.84;;;6.72;100.00
44926;BME280;30662;51.210;7.656;2023-04-24T06:46:14;150469.69;;;6.66;100.00
44926;BME280;30662;51.210;7.656;2023-04-24T06:48:40;150426.78;;;6.49;100.00
44926;BME280;30662;51.210;7.656;2023-04-24T06:51:06;150387.66;;;6.33;100.00
44926;BME280;30662;51.210;7.656;2023-04-24T06:53:32;150448.22;;;6.57;100.00
44926;BME280;30662;51.210;7.656;2023-04-24T06:55:58;150364.97;;;6.24;100.00
44926;BME280;30662;51.210;7.656;2023-04-24T06:58:25;150358.63;;;6.21;100.00
44926;BME280;30662;51.210;7.656;2023-04-24T07:00:51;150344.78;;;6.16;100.00
44926;BME280;30662;51.210;7.656;2023-04-24T07:03:16;150342.22;;;6.15;100.00
44926;BME280;30662;51.210;7.656;2023-04-24T07:05:42;150371.25;;;6.26;100.00
44926;BME280;30662;51.210;7.656;2023-04-24T07:08:08;150424.25;;;6.48;100.00
44926;BME280;30662;51.210;7.656;2023-04-24T07:10:36;150387.66;;;6.33;100.00
44926;BME280;30662;51.210;7.656;2023-04-24T07:13:02;150382.63;;;6.31;100.00
44926;BME280;30662;51.210;7.656;2023-04-24T07:15:30;150388.94;;;6.33;100.00
44926;BME280;30662;51.210;7.656;2023-04-24T07:17:57;150410.38;;;6.42;100.00
44926;BME280;30662;51.210;7.656;2023-04-24T07:20:23;150393.97;;;6.35;100.00
44926;BME280;30662;51.210;7.656;2023-04-24T07:22:49;150388.94;;;6.33;100.00
44926;BME280;30662;51.210;7.656;2023-04-24T07:25:15;150373.78;;;6.27;100.00
44926;BME280;30662;51.210;7.656;2023-04-24T07:27:41;150375.03;;;6.28;100.00
44926;BME280;30662;51.210;7.656;2023-04-24T07:30:07;150346.03;;;6.16;100.00
44926;BME280;30662;51.210;7.656;2023-04-24T07:32:33;150362.41;;;6.23;100.00
44926;BME280;30662;51.210;7.656;2023-04-24T07:34:59;150395.22;;;6.36;100.00
44926;BME280;30662;51.210;7.656;2023-04-24T07:37:25;150320.78;;;6.06;100.00
44926;BME280;30662;51.210;7.656;2023-04-24T07:39:51;150315.75;;;6.04;100.00
44926;BME280;30662;51.210;7.656;2023-04-24T07:42:17;150333.41;;;6.11;100.00
44926;BME280;30662;51.210;7.656;2023-04-24T07:44:43;150284.19;;;5.91;100.00
44926;BME280;30662;51.210;7.656;2023-04-24T07:47:09;150263.97;;;5.83;100.00
44926;BME280;30662;51.210;7.656;2023-04-24T07:49:35;150270.25;;;5.86;100.00
44926;BME280;30662;51.210;7.656;2023-04-24T07:52:01;150277.84;;;5.89;100.00
44926;BME280;30662;51.210;7.656;2023-04-24T07:54:28;150252.59;;;5.78;100.00
44926;BME280;30662;51.210;7.656;2023-04-24T07:56:54;150319.53;;;6.05;100.00
44926;BME280;30662;51.210;7.656;2023-04-24T07:59:20;150359.88;;;6.22;100.00
44926;BME280;30662;51.210;7.656;2023-04-24T08:01:46;150322.03;;;6.06;100.00
44926;BME280;30662;51.210;7.656;2023-04-24T08:04:12;150340.97;;;6.14;100.00
44926;BME280;30662;51.210;7.656;2023-04-24T08:06:38;150387.66;;;6.33;100.00
44926;BME280;30662;51.210;7.656;2023-04-24T08:09:04;150387.66;;;6.33;100.00
44926;BME280;30662;51.210;7.656;2023-04-24T08:11:30;150381.38;;;6.30;100.00
44926;BME280;30662;51.210;7.656;2023-04-24T08:13:55;150364.97;;;6.24;100.00
44926;BME280;30662;51.210;7.656;2023-04-24T08:16:22;150318.25;;;6.05;100.00
44926;BME280;30662;51.210;7.656;2023-04-24T08:18:50;150290.47;;;5.94;100.00
44926;BME280;30662;51.210;7.656;2023-04-24T08:21:16;150352.34;;;6.19;100.00
44926;BME280;30662;51.210;7.656;2023-04-24T08:23:46;150362.41;;;6.23;100.00
44926;BME280;30662;51.210;7.656;2023-04-24T08:26:13;150371.25;;;6.26;100.00
44926;BME280;30662;51.210;7.656;2023-04-24T08:28:39;150392.69;;;6.35;100.00
44926;BME280;30662;51.210;7.656;2023-04-24T08:31:05;150457.09;;;6.61;100.00
44926;BME280;30662;51.210;7.656;2023-04-24T08:33:31;150440.69;;;6.54;100.00
44926;BME280;30662;51.210;7.656;2023-04-24T08:36:02;150429.31;;;6.50;100.00
44926;BME280;30662;51.210;7.656;2023-04-24T08:38:28;150397.72;;;6.37;100.00
44926;BME280;30662;51.210;7.656;2023-04-24T08:40:54;150314.50;;;6.03;100.00
44926;BME280;30662;51.210;7.656;2023-04-24T08:43:22;150280.38;;;5.90;100.00
44926;BME280;30662;51.210;7.656;2023-04-24T08:45:48;150286.72;;;5.92;100.00
44926;BME280;30662;51.210;7.656;2023-04-24T08:48:15;150266.50;;;5.84;100.00
44926;BME280;30662;51.210;7.656;2023-04-24T08:50:56;150281.63;;;5.90;100.00
44926;BME280;30662;51.210;7.656;2023-04-24T08:53:24;150269.00;;;5.85;100.00
44926;BME280;30662;51.210;7.656;2023-04-24T08:55:51;150229.91;;;5.69;100.00
44926;BME280;30662;51.210;7.656;2023-04-24T08:58:19;150282.94;;;5.91;100.00
44926;BME280;30662;51.210;7.656;2023-04-24T09:00:45;150252.59;;;5.78;100.00
44926;BME280;30662;51.210;7.656;2023-04-24T09:03:17;150328.38;;;6.09;100.00
44926;BME280;30662;51.210;7.656;2023-04-24T09:05:46;150310.72;;;6.02;100.00
44926;BME280;30662;51.210;7.656;2023-04-24T09:08:17;150234.94;;;5.71;100.00
44926;BME280;30662;51.210;7.656;2023-04-24T09:10:44;150228.66;;;5.69;100.00
44926;BME280;30662;51.210;7.656;2023-04-24T09:13:10;150237.50;;;5.72;100.00
44926;BME280;30662;51.210;7.656;2023-04-24T09:15:37;150160.53;;;5.41;100.00
44926;BME280;30662;51.210;7.656;2023-04-24T09:18:04;150175.69;;;5.47;100.00
44926;BME280;30662;51.210;7.656;2023-04-24T09:20:30;150169.38;;;5.45;100.00
44926;BME280;30662;51.210;7.656;2023-04-24T09:22:57;150203.44;;;5.59;100.00
44926;BME280;30662;51.210;7.656;2023-04-24T09:25:33;150240.03;;;5.73;100.00
44926;BME280;30662;51.210;7.656;2023-04-24T09:28:01;150238.75;;;5.73;100.00
44926;BME280;30662;51.210;7.656;2023-04-24T09:30:28;150237.50;;;5.72;100.00
44926;BME280;30662;51.210;7.656;2023-04-24T09:33:12;150214.75;;;5.63;100.00
44926;BME280;30662;51.210;7.656;2023-04-24T09:35:49;150247.56;;;5.76;100.00
44926;BME280;30662;51.210;7.656;2023-04-24T09:38:15;150267.75;;;5.85;100.00
44926;BME280;30662;51.210;7.656;2023-04-24T09:40:41;150240.03;;;5.73;100.00
44926;BME280;30662;51.210;7.656;2023-04-24T09:43:10;150183.28;;;5.50;100.00
44926;BME280;30662;51.210;7.656;2023-04-24T09:45:38;150171.91;;;5.46;100.00
44926;BME280;30662;51.210;7.656;2023-04-24T09:48:05;150160.53;;;5.41;100.00
44926;BME280;30662;51.210;7.656;2023-04-24T09:50:32;150214.75;;;5.63;100.00
44926;BME280;30662;51.210;7.656;2023-04-24T09:53:01;150238.75;;;5.73;100.00
44926;BME280;30662;51.210;7.656;2023-04-24T09:55:28;150241.28;;;5.74;100.00
44926;BME280;30662;51.210;7.656;2023-04-24T09:57:59;150255.16;;;5.79;100.00
44926;BME280;30662;51.210;7.656;2023-04-24T10:00:32;150224.88;;;5.67;100.00
44926;BME280;30662;51.210;7.656;2023-04-24T10:03:00;150205.97;;;5.60;100.00
44926;BME280;30662;51.210;7.656;2023-04-24T10:05:36;150189.56;;;5.53;100.00
44926;BME280;30662;51.210;7.656;2023-04-24T10:08:07;150173.16;;;5.46;100.00
44926;BME280;30662;51.210;7.656;2023-04-24T10:10:45;150168.13;;;5.44;100.00
44926;BME280;30662;51.210;7.656;2023-04-24T10:13:13;150164.31;;;5.43;100.00
44926;BME280;30662;51.210;7.656;2023-04-24T10:15:41;150185.78;;;5.51;100.00
44926;BME280;30662;51.210;7.656;2023-04-24T10:18:09;150179.44;;;5.49;100.00
44926;BME280;30662;51.210;7.656;2023-04-24T10:20:37;150180.72;;;5.49;100.00
44926;BME280;30662;51.210;7.656;2023-04-24T10:23:03;150212.25;;;5.62;100.00
44926;BME280;30662;51.210;7.656;2023-04-24T10:25:30;150247.56;;;5.76;100.00
44926;BME280;30662;51.210;7.656;2023-04-24T10:27:58;150236.19;;;5.72;100.00
44926;BME280;30662;51.210;7.656;2023-04-24T10:30:27;150251.34;;;5.78;100.00
44926;BME280;30662;51.210;7.656;2023-04-24T10:32:53;150200.88;;;5.58;100.00
44926;BME280;30662;51.210;7.656;2023-04-24T10:35:19;150248.81;;;5.77;100.00
44926;BME280;30662;51.210;7.656;2023-04-24T10:38:24;150168.13;;;5.44;100.00
44926;BME280;30662;51.210;7.656;2023-04-24T10:40:50;150184.53;;;5.51;100.00
44926;BME280;30662;51.210;7.656;2023-04-24T10:43:17;150269.00;;;5.85;100.00
44926;BME280;30662;51.210;7.656;2023-04-24T10:46:03;150246.31;;;5.76;100.00
44926;BME280;30662;51.210;7.656;2023-04-24T10:48:30;150265.22;;;5.84;100.00
44926;BME280;30662;51.210;7.656;2023-04-24T10:50:56;150275.34;;;5.88;100.00
44926;BME280;30662;51.210;7.656;2023-04-24T10:53:23;150276.59;;;5.88;100.00
44926;BME280;30662;51.210;7.656;2023-04-24T10:58:50;150270.25;;;5.86;100.00
44926;BME280;30662;51.210;7.656;2023-04-24T11:01:29;150275.34;;;5.88;100.00
44926;BME280;30662;51.210;7.656;2023-04-24T11:03:58;150255.16;;;5.79;100.00
44926;BME280;30662;51.210;7.656;2023-04-24T11:06:30;150241.28;;;5.74;100.00
44926;BME280;30662;51.210;7.656;2023-04-24T11:09:04;150246.31;;;5.76;100.00
44926;BME280;30662;51.210;7.656;2023-04-24T11:11:32;150276.59;;;5.88;100.00
44926;BME280;30662;51.210;7.656;2023-04-24T11:16:39;150310.72;;;6.02;100.00
44926;BME280;30662;51.210;7.656;2023-04-24T11:19:09;150294.31;;;5.95;100.00
44926;BME280;30662;51.210;7.656;2023-04-24T11:21:53;150319.53;;;6.05;100.00
44926;BME280;30662;51.210;7.656;2023-04-24T11:24:27;150318.25;;;6.05;100.00
44926;BME280;30662;51.210;7.656;2023-04-24T11:26:55;150301.84;;;5.98;100.00
44926;BME280;30662;51.210;7.656;2023-04-24T11:29:23;150348.56;;;6.17;100.00
44926;BME280;30662;51.210;7.656;2023-04-24T11:32:17;150318.25;;;6.05;100.00
44926;BME280;30662;51.210;7.656;2023-04-24T11:34:52;150318.25;;;6.05;100.00
44926;BME280;30662;51.210;7.656;2023-04-24T11:37:18;150294.31;;;5.95;100.00
44926;BME280;30662;51.210;7.656;2023-04-24T11:39:44;150381.38;;;6.30;100.00
44926;BME280;30662;51.210;7.656;2023-04-24T11:42:14;150344.78;;;6.16;100.00
44926;BME280;30662;51.210;7.656;2023-04-24T11:44:43;150367.50;;;6.25;100.00
44926;BME280;30662;51.210;7.656;2023-04-24T11:47:09;150320.78;;;6.06;100.00
44926;BME280;30662;51.210;7.656;2023-04-24T11:49:37;150333.41;;;6.11;100.00
44926;BME280;30662;51.210;7.656;2023-04-24T11:52:04;150277.84;;;5.89;100.00
44926;BME280;30662;51.210;7.656;2023-04-24T11:54:30;150260.19;;;5.81;100.00
44926;BME280;30662;51.210;7.656;2023-04-24T11:56:57;150295.56;;;5.96;100.00
44926;BME280;30662;51.210;7.656;2023-04-24T11:59:25;150265.22;;;5.84;100.00
44926;BME280;30662;51.210;7.656;2023-04-24T12:01:50;150308.16;;;6.01;100.00
44926;BME280;30662;51.210;7.656;2023-04-24T12:04:17;150324.56;;;6.07;100.00
44926;BME280;30662;51.210;7.656;2023-04-24T12:07:01;150353.59;;;6.19;100.00
44926;BME280;30662;51.210;7.656;2023-04-24T12:09:27;150325.81;;;6.08;100.00
44926;BME280;30662;51.210;7.656;2023-04-24T12:11:53;150371.25;;;6.26;100.00
44926;BME280;30662;51.210;7.656;2023-04-24T12:14:23;150385.16;;;6.32;100.00
44926;BME280;30662;51.210;7.656;2023-04-24T12:16:50;150371.25;;;6.26;100.00
44926;BME280;30662;51.210;7.656;2023-04-24T12:19:22;150371.25;;;6.26;100.00
44926;BME280;30662;51.210;7.656;2023-04-24T12:22:03;150330.91;;;6.10;100.00
44926;BME280;30662;51.210;7.656;2023-04-24T12:24:29;150333.41;;;6.11;100.00
44926;BME280;30662;51.210;7.656;2023-04-24T12:26:56;150335.94;;;6.12;100.00
44926;BME280;30662;51.210;7.656;2023-04-24T12:29:24;150340.97;;;6.14;100.00
44926;BME280;30662;51.210;7.656;2023-04-24T12:31:51;150328.38;;;6.09;100.00
44926;BME280;30662;51.210;7.656;2023-04-24T12:34:21;150304.38;;;5.99;100.00
44926;BME280;30662;51.210;7.656;2023-04-24T12:36:48;150383.91;;;6.31;100.00
44926;BME280;30662;51.210;7.656;2023-04-24T12:39:15;150430.56;;;6.50;100.00
44926;BME280;30662;51.210;7.656;2023-04-24T12:41:55;150476.03;;;6.69;100.00
44926;BME280;30662;51.210;7.656;2023-04-24T12:44:32;150512.63;;;6.83;100.00
44926;BME280;30662;51.210;7.656;2023-04-24T12:47:00;150580.81;;;7.11;100.00
44926;BME280;30662;51.210;7.656;2023-04-24T12:49:27;150550.50;;;6.99;100.00
44926;BME280;30662;51.210;7.656;2023-04-24T12:51:53;150507.59;;;6.81;100.00
44926;BME280;30662;51.210;7.656;2023-04-24T12:54:19;150510.09;;;6.82;100.00
44926;BME280;30662;51.210;7.656;2023-04-24T12:56:45;150483.56;;;6.72;100.00